createdAt,value
2018-05-31T00:00:16.571Z,17.57
2018-05-31T00:02:42.986Z,17.46
2018-05-31T00:05:09.427Z,17.54
2018-05-31T00:07:36.725Z,17.53
2018-05-31T00:10:03.162Z,17.55
2018-05-31T00:12:29.558Z,17.69
2018-05-31T00:14:55.930Z,17.41
2018-05-31T00:17:22.511Z,17.47
2018-05-31T00:19:48.953Z,17.40
2018-05-31T00:22:15.374Z,17.52
2018-05-31T00:24:41.783Z,17.46
2018-05-31T00:27:08.165Z,17.33
2018-05-31T00:29:34.558Z,17.47
2018-05-31T00:32:00.928Z,17.52
2018-05-31T00:34:27.977Z,17.51
2018-05-31T00:36:54.386Z,17.57
2018-05-31T00:39:20.740Z,17.12
2018-05-31T00:41:47.101Z,17.06
2018-05-31T00:44:13.546Z,17.23
2018-05-31T00:46:39.952Z,17.18
2018-05-31T00:49:06.391Z,17.11
2018-05-31T00:51:32.821Z,17.19
2018-05-31T00:53:59.257Z,17.14
2018-05-31T00:56:25.662Z,16.90
2018-05-31T00:58:52.038Z,17.01
2018-05-31T01:01:18.406Z,17.08
2018-05-31T01:03:44.989Z,17.19
2018-05-31T01:06:11.423Z,17.12
2018-05-31T01:08:37.807Z,17.18
2018-05-31T01:11:04.261Z,17.05
2018-05-31T01:13:30.614Z,16.73
2018-05-31T01:15:56.989Z,16.66
2018-05-31T01:18:23.488Z,16.37
2018-05-31T01:20:49.882Z,16.33
2018-05-31T01:23:16.253Z,16.15
2018-05-31T01:25:42.823Z,16.13
2018-05-31T01:28:09.245Z,16.31
2018-05-31T01:30:35.655Z,16.21
2018-05-31T01:33:02.061Z,16.21
2018-05-31T01:35:28.521Z,16.36
2018-05-31T01:38:07.039Z,16.23
2018-05-31T01:40:33.450Z,16.21
2018-05-31T01:42:59.840Z,15.85
2018-05-31T01:45:26.302Z,15.84
2018-05-31T01:47:52.742Z,16.05
2018-05-31T01:50:19.206Z,15.86
2018-05-31T01:52:45.554Z,15.83
2018-05-31T01:55:11.956Z,15.82
2018-05-31T01:57:38.345Z,15.74
2018-05-31T02:00:04.731Z,15.85
2018-05-31T02:02:31.111Z,16.05
2018-05-31T02:04:57.487Z,16.22
2018-05-31T02:07:23.981Z,16.01
2018-05-31T02:09:50.381Z,15.88
2018-05-31T02:12:16.681Z,16.02
2018-05-31T02:14:43.128Z,16.16
2018-05-31T02:17:09.489Z,16.05
2018-05-31T02:19:36.000Z,16.07
2018-05-31T02:22:02.429Z,16.12
2018-05-31T02:24:28.807Z,16.28
2018-05-31T02:26:55.168Z,16.21
2018-05-31T02:29:21.631Z,16.33
2018-05-31T02:31:47.986Z,16.40
2018-05-31T02:34:14.395Z,16.43
2018-05-31T02:36:40.839Z,16.20
2018-05-31T02:39:07.365Z,16.34
2018-05-31T02:41:33.726Z,16.56
2018-05-31T02:44:00.152Z,16.47
2018-05-31T02:46:26.586Z,16.33
2018-05-31T02:48:53.045Z,16.53
2018-05-31T02:51:19.533Z,16.32
2018-05-31T02:53:45.914Z,16.34
2018-05-31T02:56:12.314Z,16.35
2018-05-31T02:58:38.704Z,16.45
2018-05-31T03:01:05.061Z,16.57
2018-05-31T03:03:31.469Z,16.57
2018-05-31T03:05:57.860Z,16.63
2018-05-31T03:08:24.278Z,16.72
2018-05-31T03:10:50.693Z,16.86
2018-05-31T03:13:17.231Z,16.91
2018-05-31T03:15:43.639Z,17.11
2018-05-31T03:18:09.978Z,17.18
2018-05-31T03:20:36.377Z,17.24
2018-05-31T03:23:02.810Z,17.21
2018-05-31T03:25:29.171Z,17.39
2018-05-31T03:27:55.597Z,17.33
2018-05-31T03:30:22.080Z,17.54
2018-05-31T03:32:48.481Z,17.51
2018-05-31T03:35:14.904Z,17.51
2018-05-31T03:37:41.294Z,17.55
2018-05-31T03:40:07.697Z,17.67
2018-05-31T03:42:34.122Z,17.80
2018-05-31T03:45:00.731Z,17.80
2018-05-31T03:47:27.159Z,17.81
2018-05-31T03:49:53.570Z,17.96
2018-05-31T03:52:19.929Z,18.24
2018-05-31T03:54:46.362Z,18.11
2018-05-31T03:57:12.802Z,17.86
2018-05-31T03:59:39.162Z,17.83
2018-05-31T04:02:05.519Z,17.94
2018-05-31T04:04:31.932Z,18.00
2018-05-31T04:06:58.337Z,18.23
2018-05-31T04:09:24.893Z,18.21
2018-05-31T04:11:51.378Z,18.31
2018-05-31T04:14:17.737Z,18.24
2018-05-31T04:16:44.117Z,18.22
2018-05-31T04:19:10.537Z,18.18
2018-05-31T04:21:37.061Z,18.26
2018-05-31T04:24:04.490Z,18.27
2018-05-31T04:26:30.925Z,18.41
2018-05-31T04:28:57.371Z,19.00
2018-05-31T04:31:23.758Z,18.85
2018-05-31T04:33:50.251Z,18.65
2018-05-31T04:36:16.662Z,18.70
2018-05-31T04:38:43.244Z,18.73
2018-05-31T04:41:09.655Z,18.78
2018-05-31T04:43:36.004Z,18.81
2018-05-31T04:46:02.441Z,18.83
2018-05-31T04:48:28.827Z,18.61
2018-05-31T04:50:55.352Z,18.85
2018-05-31T04:53:21.705Z,18.94
2018-05-31T04:55:48.025Z,19.05
2018-05-31T04:58:14.444Z,19.20
2018-05-31T05:00:40.951Z,19.35
2018-05-31T05:03:07.305Z,19.37
2018-05-31T05:05:33.663Z,19.33
2018-05-31T05:08:00.057Z,19.54
2018-05-31T05:10:26.447Z,19.59
2018-05-31T05:12:52.841Z,19.71
2018-05-31T05:15:19.252Z,19.64
2018-05-31T05:17:45.647Z,19.75
2018-05-31T05:20:11.995Z,19.93
2018-05-31T05:22:38.411Z,20.00
2018-05-31T05:25:05.071Z,20.06
2018-05-31T05:27:31.583Z,20.12
2018-05-31T05:29:57.999Z,20.22
2018-05-31T05:32:24.574Z,20.31
2018-05-31T05:34:51.093Z,20.49
2018-05-31T05:37:17.701Z,20.60
2018-05-31T05:39:44.081Z,20.70
2018-05-31T05:42:10.429Z,20.76
2018-05-31T05:44:36.823Z,20.53
2018-05-31T05:47:03.257Z,20.69
2018-05-31T05:49:29.648Z,20.52
2018-05-31T05:51:56.081Z,20.53
2018-05-31T05:54:22.415Z,20.64
2018-05-31T05:56:49.102Z,20.64
2018-05-31T05:59:15.656Z,20.56
2018-05-31T06:01:42.198Z,20.60
2018-05-31T06:04:08.686Z,20.76
2018-05-31T06:06:35.216Z,20.83
2018-05-31T06:09:01.637Z,20.91
2018-05-31T06:11:29.386Z,20.94
2018-05-31T06:13:56.744Z,20.92
2018-05-31T06:16:23.231Z,20.98
2018-05-31T06:18:49.633Z,21.20
2018-05-31T06:21:16.026Z,21.48
2018-05-31T06:23:42.462Z,21.53
2018-05-31T06:26:09.472Z,21.62
2018-05-31T06:28:35.962Z,21.80
2018-05-31T06:31:02.355Z,21.79
2018-05-31T06:33:28.819Z,21.87
2018-05-31T06:35:55.203Z,21.86
2018-05-31T06:38:21.593Z,21.85
2018-05-31T06:40:47.968Z,21.88
2018-05-31T06:43:14.404Z,21.99
2018-05-31T06:45:40.809Z,22.03
2018-05-31T06:48:07.210Z,22.18
2018-05-31T06:50:33.600Z,22.28
2018-05-31T06:52:59.966Z,22.50
2018-05-31T06:55:26.750Z,22.57
2018-05-31T06:57:53.130Z,22.48
2018-05-31T07:00:19.505Z,22.49
2018-05-31T07:02:45.951Z,22.43
2018-05-31T07:05:12.326Z,22.44
2018-05-31T07:07:38.709Z,22.58
2018-05-31T07:10:05.117Z,22.77
2018-05-31T07:12:31.527Z,22.81
2018-05-31T07:14:58.015Z,22.87
2018-05-31T07:17:24.988Z,23.02
2018-05-31T07:19:51.396Z,22.93
2018-05-31T07:22:17.956Z,22.92
2018-05-31T07:24:44.331Z,22.85
2018-05-31T07:27:10.746Z,22.90
2018-05-31T07:29:37.224Z,23.19
2018-05-31T07:32:03.640Z,23.34
2018-05-31T07:34:30.005Z,23.33
2018-05-31T07:36:56.525Z,23.43
2018-05-31T07:39:23.027Z,23.43
2018-05-31T07:41:49.524Z,23.47
2018-05-31T07:44:16.065Z,23.45
2018-05-31T07:46:42.537Z,23.62
2018-05-31T07:49:08.979Z,23.84
2018-05-31T07:51:35.667Z,23.94
2018-05-31T07:54:02.042Z,24.00
2018-05-31T07:56:28.452Z,24.04
2018-05-31T07:58:54.908Z,24.24
2018-05-31T08:01:21.344Z,24.24
2018-05-31T08:03:47.857Z,24.17
2018-05-31T08:06:14.370Z,24.03
2018-05-31T08:08:40.832Z,24.28
2018-05-31T08:11:07.453Z,24.45
2018-05-31T08:13:33.978Z,24.72
2018-05-31T08:16:00.410Z,24.56
2018-05-31T08:18:27.091Z,24.81
2018-05-31T08:20:53.534Z,24.89
2018-05-31T08:23:19.967Z,24.70
2018-05-31T08:25:46.328Z,24.28
2018-05-31T08:28:12.958Z,24.33
2018-05-31T08:30:39.343Z,24.61
2018-05-31T08:33:05.762Z,24.62
2018-05-31T08:35:32.469Z,24.74
2018-05-31T08:37:58.903Z,24.60
2018-05-31T08:40:25.298Z,24.66
2018-05-31T08:42:51.704Z,24.70
2018-05-31T08:45:18.097Z,24.81
2018-05-31T08:47:45.429Z,25.02
2018-05-31T08:50:11.782Z,24.97
2018-05-31T08:52:38.246Z,25.25
2018-05-31T08:55:04.675Z,25.11
2018-05-31T08:57:31.084Z,25.10
2018-05-31T08:59:57.751Z,25.16
2018-05-31T09:02:24.158Z,24.98
2018-05-31T09:04:50.523Z,24.79
2018-05-31T09:07:17.154Z,24.98
2018-05-31T09:09:43.504Z,25.30
2018-05-31T09:12:09.873Z,25.47
2018-05-31T09:14:36.249Z,25.60
2018-05-31T09:17:02.641Z,25.79
2018-05-31T09:19:29.014Z,25.75
2018-05-31T09:21:55.407Z,25.81
2018-05-31T09:24:21.741Z,25.84
2018-05-31T09:26:48.212Z,25.99
2018-05-31T09:29:14.646Z,25.96
2018-05-31T09:31:41.046Z,25.94
2018-05-31T09:34:07.379Z,25.90
2018-05-31T09:36:33.745Z,25.99
2018-05-31T09:39:00.326Z,26.02
2018-05-31T09:41:27.462Z,26.03
2018-05-31T09:43:54.568Z,26.14
2018-05-31T09:46:20.961Z,26.21
2018-05-31T09:48:47.301Z,26.34
2018-05-31T09:51:13.712Z,26.34
2018-05-31T09:53:40.107Z,26.15
2018-05-31T09:56:06.490Z,26.10
2018-05-31T09:58:33.618Z,26.12
2018-05-31T10:00:59.953Z,26.30
2018-05-31T10:03:26.389Z,26.34
2018-05-31T10:05:52.767Z,26.30
2018-05-31T10:08:19.188Z,26.45
2018-05-31T10:10:46.445Z,26.42
2018-05-31T10:13:12.840Z,26.56
2018-05-31T10:15:39.345Z,26.59
2018-05-31T10:18:05.774Z,26.56
2018-05-31T10:20:32.174Z,26.69
2018-05-31T10:22:58.571Z,26.87
2018-05-31T10:25:25.313Z,26.73
2018-05-31T10:27:51.788Z,26.84
2018-05-31T10:30:18.372Z,26.64
2018-05-31T10:32:44.888Z,26.78
2018-05-31T10:35:11.424Z,26.75
2018-05-31T10:37:37.734Z,26.58
2018-05-31T10:40:04.166Z,26.55
2018-05-31T10:42:30.546Z,26.70
2018-05-31T10:44:56.979Z,26.61
2018-05-31T10:47:23.362Z,26.83
2018-05-31T10:49:49.818Z,26.82
2018-05-31T10:52:16.192Z,27.00
2018-05-31T10:54:42.523Z,27.00
2018-05-31T10:57:08.938Z,26.93
2018-05-31T10:59:35.330Z,26.89
2018-05-31T11:02:01.749Z,26.82
2018-05-31T11:04:28.177Z,26.96
2018-05-31T11:06:54.566Z,27.17
2018-05-31T11:09:20.914Z,27.21
2018-05-31T11:11:47.319Z,27.20
2018-05-31T11:14:13.718Z,26.87
2018-05-31T11:16:40.106Z,27.18
2018-05-31T11:19:06.449Z,27.14
2018-05-31T11:21:32.808Z,27.18
2018-05-31T11:23:59.238Z,27.24
2018-05-31T11:26:25.628Z,27.29
2018-05-31T11:28:52.060Z,27.31
2018-05-31T11:31:18.438Z,27.28
2018-05-31T11:33:44.810Z,27.28
2018-05-31T11:36:11.154Z,27.24
2018-05-31T11:38:37.541Z,27.29
2018-05-31T11:41:03.921Z,27.28
2018-05-31T11:43:30.331Z,27.41
2018-05-31T11:45:56.740Z,27.41
2018-05-31T11:48:23.256Z,27.64
2018-05-31T11:50:49.662Z,27.41
2018-05-31T11:53:16.038Z,27.38
2018-05-31T11:55:42.510Z,27.54
2018-05-31T11:58:09.039Z,27.58
2018-05-31T12:00:35.526Z,27.73
2018-05-31T12:03:01.843Z,27.62
2018-05-31T12:05:28.220Z,27.60
2018-05-31T12:07:54.574Z,27.65
2018-05-31T12:10:20.958Z,27.56
2018-05-31T12:12:47.365Z,27.58
2018-05-31T12:15:13.764Z,27.67
2018-05-31T12:17:40.170Z,27.69
2018-05-31T12:20:06.547Z,27.68
2018-05-31T12:22:32.918Z,27.44
2018-05-31T12:24:59.297Z,27.57
2018-05-31T12:27:25.809Z,27.53
2018-05-31T12:29:52.217Z,27.57
2018-05-31T12:32:18.698Z,27.79
2018-05-31T12:34:45.200Z,27.73
2018-05-31T12:37:11.576Z,27.64
2018-05-31T12:39:38.014Z,27.67
2018-05-31T12:42:04.417Z,27.80
2018-05-31T12:44:30.771Z,28.04
2018-05-31T12:46:57.136Z,28.09
2018-05-31T12:49:23.603Z,28.16
2018-05-31T12:51:49.994Z,28.08
2018-05-31T12:54:16.379Z,28.04
2018-05-31T12:56:42.804Z,27.91
2018-05-31T12:59:09.192Z,28.05
2018-05-31T13:01:35.567Z,28.09
2018-05-31T13:04:01.959Z,27.91
2018-05-31T13:06:28.435Z,27.93
2018-05-31T13:08:54.872Z,28.12
2018-05-31T13:11:21.440Z,27.82
2018-05-31T13:13:47.964Z,27.94
2018-05-31T13:16:14.397Z,28.05
2018-05-31T13:18:40.788Z,28.25
2018-05-31T13:21:07.450Z,28.10
2018-05-31T13:23:33.814Z,28.26
2018-05-31T13:26:00.191Z,28.30
2018-05-31T13:28:26.563Z,28.05
2018-05-31T13:30:52.992Z,28.10
2018-05-31T13:33:19.538Z,28.08
2018-05-31T13:35:45.970Z,28.17
2018-05-31T13:38:12.385Z,28.28
2018-05-31T13:40:38.834Z,28.14
2018-05-31T13:43:05.451Z,28.19
2018-05-31T13:45:31.811Z,28.42
2018-05-31T13:47:58.214Z,28.40
2018-05-31T13:50:24.670Z,28.18
2018-05-31T13:52:51.283Z,28.09
2018-05-31T13:55:17.681Z,28.34
2018-05-31T13:57:44.279Z,28.50
2018-05-31T14:00:10.659Z,28.37
2018-05-31T14:02:37.502Z,28.45
2018-05-31T14:05:03.927Z,28.45
2018-05-31T14:07:30.355Z,28.38
2018-05-31T14:09:56.724Z,28.30
2018-05-31T14:12:23.071Z,28.43
2018-05-31T14:14:49.619Z,28.56
2018-05-31T14:17:16.157Z,28.66
2018-05-31T14:19:42.592Z,28.64
2018-05-31T14:22:08.954Z,28.67
2018-05-31T14:24:35.475Z,28.68
2018-05-31T14:27:02.030Z,28.67
2018-05-31T14:29:28.428Z,28.58
2018-05-31T14:31:54.778Z,28.69
2018-05-31T14:34:21.138Z,28.65
2018-05-31T14:36:47.545Z,28.31
2018-05-31T14:39:13.921Z,28.47
2018-05-31T14:41:40.331Z,28.55
2018-05-31T14:44:06.795Z,28.42
2018-05-31T14:46:33.194Z,28.26
2018-05-31T14:48:59.689Z,28.33
2018-05-31T14:51:26.248Z,28.22
2018-05-31T14:53:52.606Z,28.19
2018-05-31T14:56:18.950Z,28.39
2018-05-31T14:58:45.355Z,28.36
2018-05-31T15:01:11.711Z,28.18
2018-05-31T15:03:38.111Z,28.22
2018-05-31T15:06:04.550Z,28.06
2018-05-31T15:08:30.984Z,28.18
2018-05-31T15:10:57.402Z,28.15
2018-05-31T15:13:23.773Z,28.34
2018-05-31T15:15:50.253Z,28.17
2018-05-31T15:18:16.591Z,28.24
2018-05-31T15:20:43.183Z,28.22
2018-05-31T15:23:09.785Z,28.28
2018-05-31T15:25:36.783Z,28.18
2018-05-31T15:28:03.176Z,28.03
2018-05-31T15:30:29.521Z,28.06
2018-05-31T15:32:55.877Z,28.08
2018-05-31T15:35:22.222Z,28.05
2018-05-31T15:37:48.633Z,28.28
2018-05-31T15:40:15.022Z,28.21
2018-05-31T15:42:41.434Z,28.13
2018-05-31T15:45:07.845Z,28.26
2018-05-31T15:47:34.240Z,28.35
2018-05-31T15:50:00.610Z,28.15
2018-05-31T15:52:26.985Z,28.17
2018-05-31T15:54:53.575Z,28.11
2018-05-31T15:57:20.026Z,28.33
2018-05-31T15:59:46.399Z,28.16
2018-05-31T16:02:12.813Z,28.12
2018-05-31T16:04:39.396Z,28.13
2018-05-31T16:07:05.790Z,28.10
2018-05-31T16:09:32.178Z,28.13
2018-05-31T16:11:58.596Z,28.20
2018-05-31T16:14:24.950Z,28.22
2018-05-31T16:16:51.354Z,28.15
2018-05-31T16:19:17.757Z,28.24
2018-05-31T16:21:44.127Z,28.14
2018-05-31T16:24:10.697Z,28.14
2018-05-31T16:26:37.068Z,28.14
2018-05-31T16:29:03.503Z,28.13
2018-05-31T16:31:29.868Z,28.00
2018-05-31T16:33:56.228Z,27.90
2018-05-31T16:36:22.597Z,27.98
2018-05-31T16:38:48.997Z,28.00
2018-05-31T16:41:15.408Z,27.84
2018-05-31T16:43:41.782Z,28.00
2018-05-31T16:46:08.203Z,27.89
2018-05-31T16:48:35.514Z,27.86
2018-05-31T16:51:02.058Z,27.77
2018-05-31T16:53:28.516Z,27.79
2018-05-31T16:55:54.904Z,27.84
2018-05-31T16:58:21.281Z,27.80
2018-05-31T17:00:47.677Z,27.76
2018-05-31T17:03:14.027Z,27.63
2018-05-31T17:05:40.356Z,27.61
2018-05-31T17:08:06.812Z,27.50
2018-05-31T17:10:33.256Z,27.55
2018-05-31T17:12:59.656Z,27.44
2018-05-31T17:15:26.043Z,27.33
2018-05-31T17:17:52.397Z,27.34
2018-05-31T17:20:18.734Z,27.42
2018-05-31T17:22:45.092Z,27.33
2018-05-31T17:25:11.491Z,27.15
2018-05-31T17:27:37.873Z,27.33
2018-05-31T17:30:04.384Z,27.41
2018-05-31T17:32:30.849Z,27.45
2018-05-31T17:34:57.283Z,27.37
2018-05-31T17:37:23.658Z,27.20
2018-05-31T17:39:50.055Z,27.28
2018-05-31T17:42:16.421Z,27.20
2018-05-31T17:44:42.762Z,27.02
2018-05-31T17:47:09.267Z,27.04
2018-05-31T17:49:35.710Z,27.18
2018-05-31T17:52:02.078Z,27.07
2018-05-31T17:54:28.488Z,27.10
2018-05-31T17:56:54.979Z,27.06
2018-05-31T17:59:21.313Z,27.12
2018-05-31T18:01:47.693Z,26.78
2018-05-31T18:04:14.168Z,26.61
2018-05-31T18:06:40.543Z,26.75
2018-05-31T18:09:06.906Z,26.78
2018-05-31T18:11:33.354Z,26.84
2018-05-31T18:13:59.736Z,26.60
2018-05-31T18:16:26.233Z,26.42
2018-05-31T18:18:52.699Z,26.40
2018-05-31T18:21:19.060Z,26.44
2018-05-31T18:23:45.486Z,26.52
2018-05-31T18:26:11.863Z,26.48
2018-05-31T18:28:38.297Z,26.41
2018-05-31T18:31:04.680Z,26.45
2018-05-31T18:33:31.119Z,26.57
2018-05-31T18:36:20.551Z,26.41
2018-05-31T18:38:52.163Z,26.21
2018-05-31T18:41:18.967Z,26.20
2018-05-31T18:43:48.513Z,25.82
2018-05-31T18:46:15.221Z,25.67
2018-05-31T18:48:43.168Z,25.66
2018-05-31T18:51:10.563Z,25.53
2018-05-31T18:53:36.840Z,25.65
2018-05-31T18:56:11.407Z,25.64
2018-05-31T18:58:38.223Z,25.51
2018-05-31T19:01:04.620Z,25.18
2018-05-31T19:03:32.202Z,25.13
2018-05-31T19:05:58.570Z,25.22
2018-05-31T19:08:25.091Z,25.07
2018-05-31T19:10:52.458Z,25.20
2018-05-31T19:13:33.731Z,24.89
2018-05-31T19:16:00.132Z,24.42
2018-05-31T19:18:32.364Z,24.27
2018-05-31T19:20:58.774Z,24.30
2018-05-31T19:23:25.291Z,24.15
2018-05-31T19:25:51.913Z,24.13
2018-05-31T19:28:18.339Z,24.13
2018-05-31T19:30:50.791Z,23.99
2018-05-31T19:33:17.077Z,24.00
2018-05-31T19:35:49.531Z,23.75
2018-05-31T19:38:15.918Z,23.49
2018-05-31T19:40:42.265Z,23.48
2018-05-31T19:43:14.738Z,23.33
2018-05-31T19:45:41.074Z,23.25
2018-05-31T19:48:07.443Z,23.34
2018-05-31T19:50:33.777Z,23.52
2018-05-31T19:53:06.188Z,23.20
2018-05-31T19:55:32.530Z,23.18
2018-05-31T19:58:05.625Z,23.11
2018-05-31T20:00:38.118Z,22.95
2018-05-31T20:03:10.796Z,22.73
2018-05-31T20:05:37.067Z,22.72
2018-05-31T20:08:06.702Z,22.62
2018-05-31T20:10:37.373Z,22.43
2018-05-31T20:13:03.988Z,22.36
2018-05-31T20:15:30.260Z,22.26
2018-05-31T20:18:39.874Z,22.22
2018-05-31T20:21:07.982Z,21.99
2018-05-31T20:23:34.317Z,21.96
2018-05-31T20:26:00.589Z,21.73
2018-05-31T20:28:27.001Z,21.65
2018-05-31T20:30:53.349Z,21.57
2018-05-31T20:33:19.856Z,21.65
2018-05-31T20:35:46.261Z,21.60
2018-05-31T20:38:12.580Z,21.33
2018-05-31T20:40:38.864Z,21.27
2018-05-31T20:43:05.204Z,21.25
2018-05-31T20:45:31.466Z,21.38
2018-05-31T20:47:57.814Z,21.21
2018-05-31T20:50:24.171Z,21.30
2018-05-31T20:52:50.580Z,21.26
2018-05-31T20:55:16.880Z,21.30
2018-05-31T20:57:43.241Z,21.43
2018-05-31T21:00:09.601Z,21.17
2018-05-31T21:02:35.943Z,21.19
2018-05-31T21:05:02.337Z,21.06
2018-05-31T21:07:28.755Z,21.10
2018-05-31T21:09:55.104Z,21.05
2018-05-31T21:12:21.417Z,21.12
2018-05-31T21:14:47.721Z,20.97
2018-05-31T21:17:14.028Z,20.93
2018-05-31T21:19:40.349Z,20.76
2018-05-31T21:22:06.669Z,20.74
2018-05-31T21:24:32.988Z,20.73
2018-05-31T21:26:59.253Z,20.62
2018-05-31T21:29:25.547Z,20.48
2018-05-31T21:31:51.979Z,20.45
2018-05-31T21:34:18.341Z,20.35
2018-05-31T21:36:44.700Z,20.40
2018-05-31T21:39:10.954Z,20.49
2018-05-31T21:41:37.306Z,20.33
2018-05-31T21:44:03.636Z,20.28
2018-05-31T21:46:29.941Z,20.30
2018-05-31T21:48:56.376Z,20.24
2018-05-31T21:51:22.645Z,20.14
2018-05-31T21:53:48.930Z,19.96
2018-05-31T21:56:15.250Z,19.81
2018-05-31T21:58:41.609Z,19.98
2018-05-31T22:01:07.954Z,20.15
2018-05-31T22:03:34.355Z,20.15
2018-05-31T22:06:00.677Z,20.06
2018-05-31T22:08:26.916Z,19.81
2018-05-31T22:10:53.188Z,19.71
2018-05-31T22:13:19.486Z,19.78
2018-05-31T22:15:45.798Z,19.77
2018-05-31T22:18:12.174Z,19.76
2018-05-31T22:20:38.513Z,20.01
2018-05-31T22:23:04.831Z,19.74
2018-05-31T22:25:31.265Z,19.56
2018-05-31T22:27:57.535Z,19.27
2018-05-31T22:30:23.941Z,19.40
2018-05-31T22:32:51.242Z,19.44
2018-05-31T22:35:17.574Z,19.21
2018-05-31T22:37:43.944Z,19.32
2018-05-31T22:40:10.377Z,19.42
2018-05-31T22:42:36.811Z,19.32
2018-05-31T22:45:03.223Z,19.27
2018-05-31T22:47:29.608Z,19.32
2018-05-31T22:49:55.909Z,19.23
2018-05-31T22:52:22.268Z,19.31
2018-05-31T22:54:48.602Z,19.01
2018-05-31T22:57:14.920Z,18.99
2018-05-31T22:59:41.213Z,19.02
2018-05-31T23:02:07.547Z,19.07
2018-05-31T23:04:33.931Z,19.43
2018-05-31T23:07:00.311Z,19.24
2018-05-31T23:09:26.691Z,19.02
2018-05-31T23:11:53.174Z,18.91
2018-05-31T23:14:19.626Z,18.80
2018-05-31T23:16:45.934Z,18.76
2018-05-31T23:19:12.309Z,18.80
2018-05-31T23:21:38.644Z,18.84
2018-05-31T23:24:04.988Z,18.80
2018-05-31T23:26:31.364Z,18.78
2018-05-31T23:28:57.682Z,18.73
2018-05-31T23:31:24.006Z,18.75
2018-05-31T23:33:50.391Z,18.80
2018-05-31T23:36:16.733Z,18.76
2018-05-31T23:38:43.053Z,18.82
2018-05-31T23:41:09.407Z,18.83
2018-05-31T23:43:35.807Z,18.87
2018-05-31T23:46:02.157Z,18.55
2018-05-31T23:48:28.560Z,18.65
2018-05-31T23:50:54.943Z,18.58
2018-05-31T23:53:21.280Z,18.67
2018-05-31T23:55:47.644Z,18.76
2018-05-31T23:58:13.985Z,18.76
